createdAt,value
2019-05-23T00:01:48.878Z,101416.30
2019-05-23T00:04:41.741Z,101419.96
2019-05-23T00:07:31.368Z,101420.94
2019-05-23T00:10:28.935Z,101425.55
2019-05-23T00:13:03.999Z,101420.27
2019-05-23T00:15:44.480Z,101419.69
2019-05-23T00:18:34.246Z,101423.32
2019-05-23T00:21:24.013Z,101421.22
2019-05-23T00:23:54.557Z,101420.13
2019-05-23T00:26:44.790Z,101421.59
2019-05-23T00:29:14.906Z,101417.25
2019-05-23T00:31:51.333Z,101415.08
2019-05-23T00:34:22.667Z,101417.77
2019-05-23T00:36:54.463Z,101418.03
2019-05-23T00:39:28.969Z,101421.04
2019-05-23T00:41:59.620Z,101420.55
2019-05-23T00:44:30.418Z,101418.03
2019-05-23T00:47:00.337Z,101417.67
2019-05-23T00:49:30.555Z,101415.66
2019-05-23T00:52:01.485Z,101422.30
2019-05-23T00:54:32.426Z,101427.03
2019-05-23T00:57:03.499Z,101420.78
2019-05-23T00:59:33.884Z,101412.71
2019-05-23T01:02:06.309Z,101411.67
2019-05-23T01:04:37.297Z,101413.26
2019-05-23T01:07:09.675Z,101418.37
2019-05-23T01:09:39.689Z,101411.50
2019-05-23T01:12:09.857Z,101409.00
2019-05-23T01:14:40.468Z,101406.70
2019-05-23T01:17:11.433Z,101410.81
2019-05-23T01:19:42.298Z,101409.13
2019-05-23T01:22:14.006Z,101406.61
2019-05-23T01:24:46.838Z,101404.69
2019-05-23T01:27:19.474Z,101404.46
2019-05-23T01:29:51.172Z,101406.37
2019-05-23T01:32:25.528Z,101406.98
2019-05-23T01:34:56.618Z,101410.95
2019-05-23T01:37:30.723Z,101412.34
2019-05-23T01:40:02.045Z,101412.36
2019-05-23T01:42:33.675Z,101407.66
2019-05-23T01:45:05.479Z,101404.88
2019-05-23T01:47:35.428Z,101409.12
2019-05-23T01:50:06.317Z,101399.95
2019-05-23T01:52:36.295Z,101406.27
2019-05-23T01:55:08.001Z,101404.22
2019-05-23T01:57:39.014Z,101401.20
2019-05-23T02:00:11.969Z,101399.52
2019-05-23T02:02:42.895Z,101403.98
2019-05-23T02:05:14.141Z,101401.10
2019-05-23T02:07:44.270Z,101406.30
2019-05-23T02:10:15.747Z,101406.06
2019-05-23T02:12:46.099Z,101406.70
2019-05-23T02:15:16.881Z,101406.83
2019-05-23T02:17:47.791Z,101405.75
2019-05-23T02:20:20.203Z,101403.46
2019-05-23T02:22:51.527Z,101396.11
2019-05-23T02:25:22.907Z,101398.05
2019-05-23T02:27:53.328Z,101395.03
2019-05-23T02:30:34.274Z,101393.95
2019-05-23T02:32:56.557Z,101389.41
2019-05-23T02:35:26.889Z,101391.42
2019-05-23T02:38:22.231Z,101393.23
2019-05-23T02:41:20.361Z,101393.88
2019-05-23T02:43:55.216Z,101389.54
2019-05-23T02:46:38.175Z,101387.14
2019-05-23T02:49:11.228Z,101387.14
2019-05-23T02:51:42.270Z,101387.14
2019-05-23T02:54:13.990Z,101389.06
2019-05-23T02:56:45.921Z,101384.86
2019-05-23T02:59:23.768Z,101388.95
2019-05-23T03:02:18.615Z,101390.20
2019-05-23T03:04:48.463Z,101392.49
2019-05-23T03:07:21.995Z,101385.50
2019-05-23T03:09:52.391Z,101387.44
2019-05-23T03:12:25.354Z,101386.36
2019-05-23T03:14:55.010Z,101382.37
2019-05-23T03:17:48.679Z,101376.72
2019-05-23T03:20:21.237Z,101379.85
2019-05-23T03:22:56.182Z,101379.13
2019-05-23T03:26:16.423Z,101385.88
2019-05-23T03:28:48.362Z,101383.35
2019-05-23T03:31:31.918Z,101383.84
2019-05-23T03:34:00.123Z,101384.67
2019-05-23T03:36:30.274Z,101385.80
2019-05-23T03:39:00.213Z,101378.09
2019-05-23T03:41:30.989Z,101382.55
2019-05-23T03:44:04.054Z,101384.96
2019-05-23T03:46:35.381Z,101380.62
2019-05-23T03:49:06.711Z,101379.19
2019-05-23T03:51:37.122Z,101384.61
2019-05-23T03:54:08.502Z,101379.09
2019-05-23T03:56:38.320Z,101377.30
2019-05-23T03:59:08.421Z,101379.09
2019-05-23T04:01:47.835Z,101377.77
2019-05-23T04:04:12.721Z,101382.71
2019-05-23T04:06:47.477Z,101380.78
2019-05-23T04:09:17.872Z,101380.66
2019-05-23T04:11:47.910Z,101382.71
2019-05-23T04:14:17.966Z,101380.78
2019-05-23T04:16:48.472Z,101381.63
2019-05-23T04:19:18.717Z,101380.14
2019-05-23T04:21:48.912Z,101385.69
2019-05-23T04:24:18.899Z,101388.22
2019-05-23T04:26:50.388Z,101386.53
2019-05-23T04:29:20.806Z,101385.33
2019-05-23T04:32:05.873Z,101378.61
2019-05-23T04:34:22.691Z,101388.09
2019-05-23T04:36:52.752Z,101386.66
2019-05-23T04:39:23.292Z,101388.22
2019-05-23T04:41:53.870Z,101381.95
2019-05-23T04:44:24.242Z,101387.38
2019-05-23T04:46:55.887Z,101386.53
2019-05-23T04:49:25.784Z,101383.52
2019-05-23T04:51:55.930Z,101380.02
2019-05-23T04:54:25.809Z,101388.82
2019-05-23T04:56:56.424Z,101379.42
2019-05-23T04:59:26.470Z,101377.49
2019-05-23T05:01:58.885Z,101375.92
2019-05-23T05:04:29.515Z,101379.05
2019-05-23T05:06:59.787Z,101383.39
2019-05-23T05:09:32.100Z,101380.74
2019-05-23T05:12:04.548Z,101376.52
2019-05-23T05:14:34.651Z,101380.38
2019-05-23T05:17:06.364Z,101378.05
2019-05-23T05:19:36.646Z,101385.52
2019-05-23T05:22:06.904Z,101393.39
2019-05-23T05:24:40.123Z,101389.41
2019-05-23T05:27:09.060Z,101390.83
2019-05-23T05:29:39.394Z,101387.20
2019-05-23T05:32:09.907Z,101385.27
2019-05-23T05:34:40.266Z,101391.66
2019-05-23T05:37:10.227Z,101391.66
2019-05-23T05:39:41.469Z,101388.89
2019-05-23T05:42:12.120Z,101391.77
2019-05-23T05:44:42.447Z,101388.88
2019-05-23T05:47:12.893Z,101384.98
2019-05-23T05:49:42.874Z,101387.98
2019-05-23T05:52:13.314Z,101388.70
2019-05-23T05:54:43.511Z,101400.03
2019-05-23T05:57:13.483Z,101402.44
2019-05-23T05:59:43.770Z,101391.70
2019-05-23T06:02:15.453Z,101400.51
2019-05-23T06:04:45.568Z,101405.53
2019-05-23T06:07:37.468Z,101406.25
2019-05-23T06:10:12.152Z,101403.35
2019-05-23T06:12:43.605Z,101405.50
2019-05-23T06:15:14.305Z,101405.22
2019-05-23T06:17:44.327Z,101402.92
2019-05-23T06:20:14.995Z,101408.83
2019-05-23T06:22:46.194Z,101416.78
2019-05-23T06:25:16.228Z,101417.86
2019-05-23T06:27:46.539Z,101413.63
2019-05-23T06:30:18.775Z,101409.53
2019-05-23T06:32:49.094Z,101408.92
2019-05-23T06:35:20.675Z,101414.55
2019-05-23T06:37:50.836Z,101414.42
2019-05-23T06:40:20.969Z,101417.19
2019-05-23T06:42:51.275Z,101412.11
2019-05-23T06:45:22.738Z,101410.53
2019-05-23T06:47:53.538Z,101412.77
2019-05-23T06:50:25.322Z,101415.17
2019-05-23T06:52:55.314Z,101412.64
2019-05-23T06:55:25.338Z,101416.41
2019-05-23T06:57:55.871Z,101416.51
2019-05-23T07:00:28.249Z,101414.92
2019-05-23T07:02:58.234Z,101417.45
2019-05-23T07:05:32.883Z,101416.20
2019-05-23T07:08:03.745Z,101412.44
2019-05-23T07:10:34.967Z,101408.92
2019-05-23T07:13:05.585Z,101415.66
2019-05-23T07:15:35.758Z,101410.70
2019-05-23T07:18:06.062Z,101405.45
2019-05-23T07:20:36.332Z,101413.52
2019-05-23T07:23:09.213Z,101419.55
2019-05-23T07:25:39.538Z,101405.88
2019-05-23T07:28:09.510Z,101411.39
2019-05-23T07:30:39.523Z,101413.30
2019-05-23T07:33:10.180Z,101413.17
2019-05-23T07:35:40.167Z,101411.45
2019-05-23T07:38:10.236Z,101409.86
2019-05-23T07:40:40.665Z,101409.08
2019-05-23T07:43:12.122Z,101415.45
2019-05-23T07:45:48.047Z,101410.72
2019-05-23T07:48:18.303Z,101408.91
2019-05-23T07:50:48.857Z,101406.83
2019-05-23T07:53:43.725Z,101407.24
2019-05-23T07:56:14.658Z,101402.99
2019-05-23T07:58:44.640Z,101396.66
2019-05-23T08:01:16.816Z,101404.69
2019-05-23T08:03:49.603Z,101400.79
2019-05-23T08:06:19.895Z,101405.84
2019-05-23T08:08:50.663Z,101399.28
2019-05-23T08:11:21.250Z,101396.00
2019-05-23T08:13:51.935Z,101393.27
2019-05-23T08:16:22.261Z,101393.34
2019-05-23T08:18:52.426Z,101397.09
2019-05-23T08:21:22.956Z,101397.50
2019-05-23T08:23:52.910Z,101388.27
2019-05-23T08:26:23.647Z,101394.52
2019-05-23T08:29:23.786Z,101394.59
2019-05-23T08:31:27.118Z,101396.47
2019-05-23T08:33:58.465Z,101392.77
2019-05-23T08:36:30.340Z,101392.84
2019-05-23T08:39:00.810Z,101393.24
2019-05-23T08:41:33.431Z,101391.64
2019-05-23T08:44:03.588Z,101388.56
2019-05-23T08:46:33.617Z,101390.11
2019-05-23T08:49:04.695Z,101386.65
2019-05-23T08:51:35.198Z,101387.56
2019-05-23T08:54:05.727Z,101387.70
2019-05-23T08:56:35.753Z,101385.09
2019-05-23T08:59:07.740Z,101383.34
2019-05-23T09:01:40.279Z,101379.55
2019-05-23T09:04:10.960Z,101380.61
2019-05-23T09:06:42.193Z,101370.97
2019-05-23T09:09:28.341Z,101374.05
2019-05-23T09:11:46.669Z,101367.81
2019-05-23T09:14:17.014Z,101372.61
2019-05-23T09:16:46.954Z,101366.70
2019-05-23T09:19:17.557Z,101362.77
2019-05-23T09:21:48.034Z,101363.19
2019-05-23T09:24:18.169Z,101361.42
2019-05-23T09:26:49.081Z,101367.80
2019-05-23T09:29:19.194Z,101356.53
2019-05-23T09:31:49.693Z,101360.30
2019-05-23T09:34:19.887Z,101359.34
2019-05-23T09:36:49.958Z,101363.89
2019-05-23T09:39:21.578Z,101359.25
2019-05-23T09:41:51.583Z,101354.67
2019-05-23T09:44:21.649Z,101356.72
2019-05-23T09:46:51.698Z,101351.00
2019-05-23T09:49:21.958Z,101350.53
2019-05-23T09:51:55.652Z,101347.56
2019-05-23T09:54:24.835Z,101347.61
2019-05-23T09:56:55.232Z,101345.69
2019-05-23T09:59:26.748Z,101343.88
2019-05-23T10:01:57.172Z,101339.28
2019-05-23T10:04:27.086Z,101336.17
2019-05-23T10:06:57.175Z,101337.59
2019-05-23T10:09:27.440Z,101333.62
2019-05-23T10:11:57.515Z,101336.00
2019-05-23T10:14:31.188Z,101326.33
2019-05-23T10:17:01.216Z,101325.19
2019-05-23T10:19:32.090Z,101315.39
2019-05-23T10:22:02.127Z,101315.44
2019-05-23T10:24:32.073Z,101315.66
2019-05-23T10:27:02.570Z,101315.02
2019-05-23T10:29:32.516Z,101309.03
2019-05-23T10:32:04.789Z,101315.20
2019-05-23T10:34:35.178Z,101309.19
2019-05-23T10:37:08.084Z,101312.23
2019-05-23T10:39:40.925Z,101302.92
2019-05-23T10:42:10.965Z,101305.47
2019-05-23T10:44:44.785Z,101305.38
2019-05-23T10:47:12.622Z,101304.81
2019-05-23T10:49:42.885Z,101294.59
2019-05-23T10:52:13.274Z,101291.46
2019-05-23T10:54:43.288Z,101295.02
2019-05-23T10:57:13.313Z,101287.52
2019-05-23T10:59:43.254Z,101284.70
2019-05-23T11:02:14.493Z,101281.01
2019-05-23T11:04:44.511Z,101285.23
2019-05-23T11:07:14.488Z,101287.06
2019-05-23T11:09:44.726Z,101274.36
2019-05-23T11:12:15.545Z,101275.87
2019-05-23T11:14:45.586Z,101269.67
2019-05-23T11:17:16.405Z,101265.66
2019-05-23T11:19:46.400Z,101263.98
2019-05-23T11:22:16.386Z,101263.31
2019-05-23T11:24:46.468Z,101259.32
2019-05-23T11:27:17.170Z,101257.64
2019-05-23T11:29:47.200Z,101257.94
2019-05-23T11:32:20.358Z,101260.95
2019-05-23T11:34:49.703Z,101258.96
2019-05-23T11:37:19.973Z,101251.61
2019-05-23T11:39:51.110Z,101252.28
2019-05-23T11:42:21.696Z,101257.62
2019-05-23T11:44:51.911Z,101245.57
2019-05-23T11:47:22.143Z,101248.41
2019-05-23T11:49:52.528Z,101240.19
2019-05-23T11:52:22.521Z,101241.86
2019-05-23T11:54:53.163Z,101238.84
2019-05-23T11:57:23.738Z,101234.16
2019-05-23T11:59:54.146Z,101232.12
2019-05-23T12:02:29.662Z,101225.75
2019-05-23T12:05:00.815Z,101224.20
2019-05-23T12:07:33.076Z,101223.47
2019-05-23T12:10:03.217Z,101222.09
2019-05-23T12:12:33.396Z,101219.16
2019-05-23T12:15:05.020Z,101227.11
2019-05-23T12:17:35.080Z,101226.36
2019-05-23T12:20:08.348Z,101218.78
2019-05-23T12:22:38.430Z,101221.30
2019-05-23T12:25:20.965Z,101219.61
2019-05-23T12:27:40.977Z,101217.54
2019-05-23T12:30:13.948Z,101211.29
2019-05-23T12:32:44.942Z,101208.73
2019-05-23T12:35:13.946Z,101213.05
2019-05-23T12:37:44.005Z,101205.53
2019-05-23T12:40:14.665Z,101215.14
2019-05-23T12:42:44.606Z,101212.98
2019-05-23T12:45:16.026Z,101201.05
2019-05-23T12:47:57.890Z,101198.98
2019-05-23T12:50:31.848Z,101201.92
2019-05-23T12:53:01.870Z,101210.92
2019-05-23T12:55:31.907Z,101205.86
2019-05-23T12:58:02.189Z,101200.16
2019-05-23T13:00:50.037Z,101192.48
2019-05-23T13:03:20.321Z,101186.27
2019-05-23T13:05:50.910Z,101186.48
2019-05-23T13:08:21.170Z,101188.84
2019-05-23T13:10:51.216Z,101188.56
2019-05-23T13:13:21.692Z,101189.98
2019-05-23T13:15:51.944Z,101188.16
2019-05-23T13:18:22.133Z,101182.87
2019-05-23T13:20:52.817Z,101177.12
2019-05-23T13:23:23.856Z,101172.03
2019-05-23T13:25:53.849Z,101171.11
2019-05-23T13:28:24.249Z,101168.44
2019-05-23T13:30:54.241Z,101166.77
2019-05-23T13:33:25.176Z,101169.07
2019-05-23T13:35:55.393Z,101169.31
2019-05-23T13:38:25.409Z,101169.68
2019-05-23T13:40:55.399Z,101166.05
2019-05-23T13:43:25.543Z,101152.94
2019-05-23T13:45:55.919Z,101157.94
2019-05-23T13:48:28.170Z,101159.20
2019-05-23T13:50:58.633Z,101156.75
2019-05-23T13:53:29.191Z,101152.06
2019-05-23T13:55:59.156Z,101145.09
2019-05-23T13:58:32.619Z,101144.77
2019-05-23T14:01:08.555Z,101146.20
2019-05-23T14:03:35.494Z,101147.39
2019-05-23T14:06:07.889Z,101145.95
2019-05-23T14:08:38.270Z,101147.53
2019-05-23T14:11:08.445Z,101151.27
2019-05-23T14:13:38.687Z,101141.14
2019-05-23T14:16:08.990Z,101141.14
2019-05-23T14:18:39.925Z,101134.08
2019-05-23T14:21:10.539Z,101134.08
2019-05-23T14:23:40.513Z,101118.53
2019-05-23T14:26:11.653Z,101126.59
2019-05-23T14:28:42.479Z,101129.80
2019-05-23T14:31:18.090Z,101129.36
2019-05-23T14:34:06.201Z,101124.50
2019-05-23T14:36:52.874Z,101125.33
2019-05-23T14:39:31.082Z,101112.92
2019-05-23T14:42:07.254Z,101123.30
2019-05-23T14:44:37.275Z,101121.89
2019-05-23T14:47:42.457Z,101118.96
2019-05-23T14:50:27.550Z,101122.49
2019-05-23T14:52:58.308Z,101120.11
2019-05-23T14:55:28.581Z,101121.42
2019-05-23T14:57:57.664Z,101114.57
2019-05-23T15:00:27.697Z,101114.02
2019-05-23T15:02:56.712Z,101104.06
2019-05-23T15:05:26.279Z,101109.49
2019-05-23T15:07:56.120Z,101101.74
2019-05-23T15:10:25.590Z,101104.56
2019-05-23T15:12:54.449Z,101100.42
2019-05-23T15:15:23.411Z,101100.03
2019-05-23T15:17:52.702Z,101105.44
2019-05-23T15:20:21.642Z,101103.46
2019-05-23T15:22:51.187Z,101107.31
2019-05-23T15:25:20.444Z,101103.99
2019-05-23T15:27:49.306Z,101101.19
2019-05-23T15:30:19.054Z,101100.05
2019-05-23T15:32:47.999Z,101105.55
2019-05-23T15:35:16.942Z,101093.57
2019-05-23T15:37:45.838Z,101083.48
2019-05-23T15:40:15.891Z,101081.31
2019-05-23T15:42:44.924Z,101083.59
2019-05-23T15:45:15.296Z,101079.77
2019-05-23T15:47:45.211Z,101081.12
2019-05-23T15:50:17.197Z,101084.54
2019-05-23T15:53:02.176Z,101084.31
2019-05-23T15:55:54.157Z,101070.19
2019-05-23T15:58:46.254Z,101067.09
2019-05-23T16:01:25.956Z,101068.76
2019-05-23T16:04:03.034Z,101066.89
2019-05-23T16:06:34.619Z,101057.54
2019-05-23T16:09:07.757Z,101068.53
2019-05-23T16:11:37.789Z,101049.85
2019-05-23T16:14:08.293Z,101065.64
2019-05-23T16:16:38.232Z,101061.57
2019-05-23T16:19:08.312Z,101071.13
2019-05-23T16:21:40.697Z,101068.20
2019-05-23T16:24:11.839Z,101061.48
2019-05-23T16:26:42.332Z,101064.66
2019-05-23T16:29:14.173Z,101064.75
2019-05-23T16:31:44.747Z,101055.83
2019-05-23T16:34:15.038Z,101055.75
2019-05-23T16:36:45.997Z,101055.95
2019-05-23T16:39:17.444Z,101056.74
2019-05-23T16:41:47.886Z,101055.19
2019-05-23T16:44:18.611Z,101052.38
2019-05-23T16:46:48.628Z,101054.13
2019-05-23T16:49:19.071Z,101051.94
2019-05-23T16:51:49.438Z,101057.84
2019-05-23T16:54:22.209Z,101055.75
2019-05-23T16:57:06.997Z,101053.99
2019-05-23T16:59:58.976Z,101056.49
2019-05-23T17:02:44.745Z,101052.25
2019-05-23T17:05:23.646Z,101048.30
2019-05-23T17:08:11.005Z,101056.50
2019-05-23T17:10:52.112Z,101055.66
2019-05-23T17:13:28.940Z,101057.09
2019-05-23T17:16:12.246Z,101057.52
2019-05-23T17:18:49.089Z,101058.55
2019-05-23T17:21:39.551Z,101052.85
2019-05-23T17:24:30.899Z,101052.77
2019-05-23T17:27:23.981Z,101048.17
2019-05-23T17:30:00.384Z,101058.31
2019-05-23T17:32:33.344Z,101055.62
2019-05-23T17:35:03.438Z,101049.39
2019-05-23T17:37:33.515Z,101050.55
2019-05-23T17:40:03.888Z,101051.06
2019-05-23T17:42:34.796Z,101047.85
2019-05-23T17:45:05.044Z,101042.94
2019-05-23T17:47:35.754Z,101043.70
2019-05-23T17:50:06.497Z,101039.12
2019-05-23T17:52:36.432Z,101040.40
2019-05-23T17:55:06.958Z,101039.30
2019-05-23T17:57:37.235Z,101037.86
2019-05-23T18:00:07.989Z,101037.06
2019-05-23T18:02:38.396Z,101038.40
2019-05-23T18:05:09.339Z,101038.84
2019-05-23T18:07:40.019Z,101035.95
2019-05-23T18:10:11.082Z,101037.25
2019-05-23T18:12:41.151Z,101033.02
2019-05-23T18:15:13.507Z,101037.20
2019-05-23T18:17:43.386Z,101037.20
2019-05-23T18:20:15.383Z,101034.11
2019-05-23T18:22:46.692Z,101026.92
2019-05-23T18:25:17.083Z,101035.03
2019-05-23T18:27:47.338Z,101033.14
2019-05-23T18:30:30.591Z,101035.95
2019-05-23T18:33:02.508Z,101036.04
2019-05-23T18:35:33.159Z,101035.19
2019-05-23T18:38:05.014Z,101036.61
2019-05-23T18:40:35.322Z,101028.67
2019-05-23T18:43:06.277Z,101028.67
2019-05-23T18:45:38.572Z,101037.92
2019-05-23T18:48:09.636Z,101039.67
2019-05-23T18:50:40.600Z,101042.06
2019-05-23T18:53:11.100Z,101046.72
2019-05-23T18:55:41.305Z,101043.41
2019-05-23T18:58:11.412Z,101043.41
2019-05-23T19:01:03.958Z,101039.48
2019-05-23T19:03:35.841Z,101041.87
2019-05-23T19:06:06.248Z,101048.78
2019-05-23T19:08:36.312Z,101044.16
2019-05-23T19:11:20.003Z,101046.39
2019-05-23T19:13:39.310Z,101051.33
2019-05-23T19:16:09.358Z,101052.20
2019-05-23T19:18:40.746Z,101057.47
2019-05-23T19:21:13.062Z,101053.14
2019-05-23T19:23:45.776Z,101053.14
2019-05-23T19:26:35.583Z,101051.52
2019-05-23T19:29:08.861Z,101049.21
2019-05-23T19:31:38.986Z,101055.30
2019-05-23T19:34:08.971Z,101057.33
2019-05-23T19:36:39.500Z,101063.03
2019-05-23T19:39:10.353Z,101063.08
2019-05-23T19:41:40.551Z,101065.44
2019-05-23T19:44:10.838Z,101067.46
2019-05-23T19:46:41.053Z,101072.52
2019-05-23T19:49:12.814Z,101076.56
2019-05-23T19:51:44.260Z,101076.56
2019-05-23T19:54:14.729Z,101074.94
2019-05-23T19:56:44.800Z,101074.11
2019-05-23T19:59:15.281Z,101075.30
2019-05-23T20:02:03.258Z,101080.65
2019-05-23T20:04:36.065Z,101079.68
2019-05-23T20:07:06.657Z,101083.02
2019-05-23T20:09:36.610Z,101082.05
2019-05-23T20:12:06.676Z,101086.73
2019-05-23T20:14:38.280Z,101080.73
2019-05-23T20:17:08.481Z,101085.74
2019-05-23T20:19:39.204Z,101087.58
2019-05-23T20:22:10.238Z,101086.77
2019-05-23T20:24:40.585Z,101089.09
2019-05-23T20:27:10.881Z,101090.09
2019-05-23T20:29:41.083Z,101094.09
2019-05-23T20:32:11.923Z,101087.93
2019-05-23T20:34:42.163Z,101098.77
2019-05-23T20:37:12.414Z,101098.77
2019-05-23T20:39:42.368Z,101090.58
2019-05-23T20:42:12.654Z,101096.09
2019-05-23T20:44:42.508Z,101100.12
2019-05-23T20:47:13.356Z,101095.39
2019-05-23T20:49:43.413Z,101103.73
2019-05-23T20:52:13.724Z,101097.06
2019-05-23T20:54:43.677Z,101102.55
2019-05-23T20:57:13.643Z,101104.37
2019-05-23T20:59:43.595Z,101100.70
2019-05-23T21:02:13.559Z,101102.36
2019-05-23T21:04:43.420Z,101096.34
2019-05-23T21:07:13.302Z,101098.33
2019-05-23T21:09:43.734Z,101092.31
2019-05-23T21:12:28.858Z,101089.48
2019-05-23T21:14:45.267Z,101087.10
2019-05-23T21:17:15.228Z,101088.59
2019-05-23T21:19:45.173Z,101088.54
2019-05-23T21:22:15.119Z,101090.20
2019-05-23T21:24:44.989Z,101086.66
2019-05-23T21:27:15.028Z,101085.80
2019-05-23T21:29:45.217Z,101081.13
2019-05-23T21:32:15.236Z,101084.54
2019-05-23T21:34:45.183Z,101081.19
2019-05-23T21:37:15.459Z,101081.81
2019-05-23T21:39:45.469Z,101084.30
2019-05-23T21:42:15.353Z,101077.94
2019-05-23T21:44:45.493Z,101074.89
2019-05-23T21:47:15.448Z,101074.02
2019-05-23T21:49:45.406Z,101074.17
2019-05-23T21:52:15.272Z,101073.49
2019-05-23T21:54:45.229Z,101072.44
2019-05-23T21:57:16.355Z,101072.24
2019-05-23T21:59:46.391Z,101076.09
2019-05-23T22:02:24.175Z,101078.41
2019-05-23T22:05:00.520Z,101074.22
2019-05-23T22:07:30.460Z,101067.86
2019-05-23T22:10:00.317Z,101073.34
2019-05-23T22:12:30.520Z,101069.00
2019-05-23T22:15:00.835Z,101064.81
2019-05-23T22:17:30.989Z,101068.58
2019-05-23T22:20:01.171Z,101060.87
2019-05-23T22:22:31.584Z,101067.19
2019-05-23T22:25:01.889Z,101063.50
2019-05-23T22:27:31.995Z,101066.61
2019-05-23T22:30:02.327Z,101060.90
2019-05-23T22:32:33.734Z,101065.69
2019-05-23T22:35:09.971Z,101065.64
2019-05-23T22:37:39.845Z,101061.30
2019-05-23T22:40:09.809Z,101061.95
2019-05-23T22:42:40.936Z,101057.31
2019-05-23T22:45:15.170Z,101061.65
2019-05-23T22:47:45.483Z,101054.20
2019-05-23T22:50:15.785Z,101056.59
2019-05-23T22:52:45.736Z,101060.75
2019-05-23T22:55:15.677Z,101055.95
2019-05-23T22:57:45.615Z,101058.13
2019-05-23T23:00:18.108Z,101059.12
2019-05-23T23:02:48.040Z,101058.77
2019-05-23T23:05:17.993Z,101061.59
2019-05-23T23:07:48.224Z,101058.23
2019-05-23T23:10:18.765Z,101062.07
2019-05-23T23:12:48.750Z,101055.83
2019-05-23T23:15:18.790Z,101055.34
2019-05-23T23:17:49.022Z,101052.33
2019-05-23T23:20:18.943Z,101049.97
2019-05-23T23:22:48.880Z,101044.44
2019-05-23T23:25:18.814Z,101050.10
2019-05-23T23:27:48.814Z,101046.41
2019-05-23T23:30:23.935Z,101042.86
2019-05-23T23:32:54.203Z,101035.55
2019-05-23T23:35:24.150Z,101038.56
2019-05-23T23:37:54.019Z,101037.88
2019-05-23T23:40:24.059Z,101033.05
2019-05-23T23:42:55.063Z,101032.36
2019-05-23T23:45:42.690Z,101033.84
2019-05-23T23:48:30.533Z,101030.48
2019-05-23T23:51:18.179Z,101029.14
2019-05-23T23:54:06.223Z,101034.42
2019-05-23T23:56:54.157Z,101033.43
2019-05-23T23:59:23.185Z,101029.63
